createdAt,value
2022-12-03T00:00:12.885Z,13.80
2022-12-03T00:02:40.675Z,13.03
2022-12-03T00:05:08.046Z,11.93
2022-12-03T00:07:34.405Z,12.57
2022-12-03T00:10:00.839Z,13.70
2022-12-03T00:12:27.225Z,13.47
2022-12-03T00:14:53.759Z,12.87
2022-12-03T00:17:20.237Z,11.37
2022-12-03T00:19:46.674Z,13.50
2022-12-03T00:22:13.033Z,14.03
2022-12-03T00:24:39.404Z,12.03
2022-12-03T00:27:05.777Z,13.10
2022-12-03T00:29:32.162Z,13.93
2022-12-03T00:31:58.708Z,13.37
2022-12-03T00:34:25.055Z,12.47
2022-12-03T00:36:51.405Z,11.83
2022-12-03T00:39:17.809Z,15.57
2022-12-03T00:41:44.159Z,14.03
2022-12-03T00:44:11.800Z,14.67
2022-12-03T00:46:38.188Z,14.20
2022-12-03T00:49:04.561Z,18.10
2022-12-03T00:51:30.882Z,13.90
2022-12-03T00:53:57.220Z,14.67
2022-12-03T00:56:23.555Z,14.40
2022-12-03T00:58:50.027Z,14.90
2022-12-03T01:01:16.513Z,16.70
2022-12-03T01:03:42.825Z,16.60
2022-12-03T01:06:09.158Z,15.47
2022-12-03T01:08:35.811Z,17.53
2022-12-03T01:11:24.226Z,17.57
2022-12-03T01:13:50.515Z,17.53
2022-12-03T01:16:16.856Z,14.93
2022-12-03T01:18:43.302Z,17.27
2022-12-03T01:21:09.651Z,17.17
2022-12-03T01:23:36.030Z,16.03
2022-12-03T01:26:02.352Z,16.67
2022-12-03T01:28:29.297Z,16.90
2022-12-03T01:31:14.038Z,14.73
2022-12-03T01:33:40.349Z,15.53
2022-12-03T01:36:06.897Z,20.90
2022-12-03T01:38:33.239Z,17.13
2022-12-03T01:40:59.594Z,16.00
2022-12-03T01:43:26.005Z,19.23
2022-12-03T01:45:52.454Z,17.23
2022-12-03T01:48:18.874Z,18.60
2022-12-03T01:50:45.541Z,18.47
2022-12-03T01:53:15.661Z,16.30
2022-12-03T01:55:48.332Z,17.77
2022-12-03T01:58:16.284Z,17.10
2022-12-03T02:00:42.596Z,18.30
2022-12-03T02:03:18.407Z,19.47
2022-12-03T02:05:44.749Z,18.77
2022-12-03T02:08:34.499Z,18.53
2022-12-03T02:11:20.686Z,18.93
2022-12-03T02:13:50.693Z,16.27
2022-12-03T02:16:17.176Z,17.17
2022-12-03T02:18:43.775Z,18.93
2022-12-03T02:21:31.680Z,18.77
2022-12-03T02:24:28.138Z,17.10
2022-12-03T02:26:54.550Z,18.83
2022-12-03T02:29:22.185Z,16.70
2022-12-03T02:31:48.633Z,15.40
2022-12-03T02:34:40.662Z,17.80
2022-12-03T02:37:11.500Z,16.43
2022-12-03T02:39:42.876Z,16.67
2022-12-03T02:42:29.325Z,14.83
2022-12-03T02:45:00.784Z,18.87
2022-12-03T02:47:35.121Z,16.23
2022-12-03T02:50:02.239Z,16.43
2022-12-03T02:52:28.695Z,17.03
2022-12-03T02:54:55.555Z,17.37
2022-12-03T02:57:22.237Z,18.40
2022-12-03T02:59:48.707Z,18.63
2022-12-03T03:02:15.305Z,17.70
2022-12-03T03:04:42.870Z,15.63
2022-12-03T03:07:09.598Z,16.13
2022-12-03T03:09:36.339Z,15.73
2022-12-03T03:12:02.777Z,15.50
2022-12-03T03:14:29.113Z,15.87
2022-12-03T03:16:58.333Z,15.07
2022-12-03T03:19:25.907Z,17.00
2022-12-03T03:21:53.536Z,13.63
2022-12-03T03:24:21.547Z,17.23
2022-12-03T03:26:49.085Z,16.47
2022-12-03T03:29:15.593Z,14.63
2022-12-03T03:31:44.220Z,19.47
2022-12-03T03:34:11.251Z,14.03
2022-12-03T03:36:37.855Z,14.07
2022-12-03T03:39:05.915Z,17.27
2022-12-03T03:41:33.365Z,15.00
2022-12-03T03:44:00.137Z,13.67
2022-12-03T03:46:28.193Z,13.57
2022-12-03T03:48:54.570Z,16.07
2022-12-03T03:51:21.221Z,14.47
2022-12-03T03:53:49.751Z,13.87
2022-12-03T03:56:18.566Z,15.97
2022-12-03T03:58:44.906Z,11.67
2022-12-03T04:01:12.880Z,12.77
2022-12-03T04:03:39.570Z,13.73
2022-12-03T04:06:06.677Z,14.30
2022-12-03T04:08:33.002Z,11.10
2022-12-03T04:11:17.758Z,14.87
2022-12-03T04:13:44.070Z,14.87
2022-12-03T04:16:10.469Z,14.47
2022-12-03T04:18:42.696Z,13.93
2022-12-03T04:21:31.560Z,13.47
2022-12-03T04:23:58.105Z,14.40
2022-12-03T04:26:43.816Z,17.13
2022-12-03T04:29:10.507Z,14.00
2022-12-03T04:31:55.260Z,12.67
2022-12-03T04:34:39.961Z,15.07
2022-12-03T04:37:06.644Z,12.47
2022-12-03T04:39:33.387Z,13.77
2022-12-03T04:41:59.754Z,13.07
2022-12-03T04:44:38.146Z,13.67
2022-12-03T04:47:13.431Z,13.47
2022-12-03T04:49:42.364Z,16.63
2022-12-03T04:52:10.658Z,15.13
2022-12-03T04:54:38.529Z,14.17
2022-12-03T04:57:06.650Z,14.67
2022-12-03T04:59:33.497Z,14.90
2022-12-03T05:01:59.897Z,15.03
2022-12-03T05:04:26.699Z,12.97
2022-12-03T05:06:53.091Z,15.00
2022-12-03T05:09:19.633Z,13.77
2022-12-03T05:11:46.164Z,12.90
2022-12-03T05:14:12.619Z,14.30
2022-12-03T05:16:39.626Z,12.30
2022-12-03T05:19:08.762Z,13.60
2022-12-03T05:21:35.702Z,12.70
2022-12-03T05:24:02.700Z,12.03
2022-12-03T05:26:29.293Z,12.77
2022-12-03T05:28:55.611Z,14.83
2022-12-03T05:31:22.007Z,13.47
2022-12-03T05:33:48.593Z,11.13
2022-12-03T05:36:15.395Z,14.60
2022-12-03T05:38:41.804Z,13.63
2022-12-03T05:41:28.085Z,13.00
2022-12-03T05:43:54.762Z,12.70
2022-12-03T05:46:21.105Z,14.87
2022-12-03T05:48:47.527Z,12.67
2022-12-03T05:51:13.887Z,10.37
2022-12-03T05:53:40.176Z,11.60
2022-12-03T05:56:06.722Z,13.17
2022-12-03T05:58:33.097Z,12.13
2022-12-03T06:00:59.443Z,13.07
2022-12-03T06:03:26.126Z,13.43
2022-12-03T06:05:52.617Z,11.53
2022-12-03T06:08:19.017Z,12.63
2022-12-03T06:10:45.447Z,12.33
2022-12-03T06:13:11.745Z,15.33
2022-12-03T06:15:43.523Z,11.63
2022-12-03T06:18:10.541Z,15.43
2022-12-03T06:20:36.866Z,11.63
2022-12-03T06:23:03.249Z,13.47
2022-12-03T06:25:29.588Z,12.50
2022-12-03T06:27:55.861Z,11.47
2022-12-03T06:30:22.195Z,12.03
2022-12-03T06:32:48.524Z,12.83
2022-12-03T06:35:14.907Z,14.00
2022-12-03T06:37:41.222Z,14.40
2022-12-03T06:40:08.228Z,13.97
2022-12-03T06:42:34.513Z,12.30
2022-12-03T06:45:00.859Z,15.80
2022-12-03T06:47:27.179Z,13.53
2022-12-03T06:49:53.501Z,13.50
2022-12-03T06:52:19.828Z,13.00
2022-12-03T06:54:46.099Z,14.07
2022-12-03T06:57:12.380Z,14.57
2022-12-03T06:59:38.787Z,14.27
2022-12-03T07:02:05.321Z,13.63
2022-12-03T07:04:31.806Z,13.10
2022-12-03T07:06:58.198Z,15.90
2022-12-03T07:09:24.549Z,17.90
2022-12-03T07:11:50.885Z,15.67
2022-12-03T07:14:17.247Z,17.37
2022-12-03T07:16:43.925Z,13.70
2022-12-03T07:19:10.864Z,15.10
2022-12-03T07:21:37.718Z,16.33
2022-12-03T07:24:04.176Z,16.63
2022-12-03T07:26:30.469Z,13.97
2022-12-03T07:28:57.210Z,16.70
2022-12-03T07:31:23.931Z,16.70
2022-12-03T07:33:50.442Z,17.07
2022-12-03T07:36:16.897Z,17.87
2022-12-03T07:38:43.286Z,18.53
2022-12-03T07:41:09.597Z,17.93
2022-12-03T07:43:35.929Z,22.50
2022-12-03T07:46:02.301Z,17.10
2022-12-03T07:48:28.727Z,18.93
2022-12-03T07:50:55.025Z,20.73
2022-12-03T07:53:21.931Z,19.80
2022-12-03T07:55:48.381Z,20.03
2022-12-03T07:58:14.764Z,18.83
2022-12-03T08:00:41.120Z,17.27
2022-12-03T08:03:07.469Z,18.97
2022-12-03T08:05:33.811Z,17.47
2022-12-03T08:08:01.076Z,16.63
2022-12-03T08:10:27.485Z,18.67
2022-12-03T08:12:56.114Z,18.33
2022-12-03T08:15:24.618Z,18.03
2022-12-03T08:18:00.833Z,15.10
2022-12-03T08:20:34.801Z,14.13
2022-12-03T08:23:06.516Z,17.73
2022-12-03T08:25:33.688Z,18.80
2022-12-03T08:28:12.705Z,13.43
2022-12-03T08:30:40.334Z,17.83
2022-12-03T08:33:16.521Z,14.07
2022-12-03T08:35:48.144Z,18.27
2022-12-03T08:38:14.442Z,20.23
2022-12-03T08:40:46.634Z,16.40
2022-12-03T08:43:23.139Z,19.83
2022-12-03T08:45:51.411Z,18.50
2022-12-03T08:48:20.526Z,19.83
2022-12-03T08:50:47.050Z,16.73
2022-12-03T08:53:13.278Z,20.97
2022-12-03T08:55:47.133Z,17.20
2022-12-03T08:58:23.765Z,20.07
2022-12-03T09:01:35.315Z,14.77
2022-12-03T09:04:24.797Z,15.73
2022-12-03T09:06:52.969Z,18.37
2022-12-03T09:09:20.337Z,17.37
2022-12-03T09:11:46.834Z,17.60
2022-12-03T09:14:18.503Z,18.53
2022-12-03T09:16:45.274Z,17.40
2022-12-03T09:19:11.772Z,19.87
2022-12-03T09:21:38.168Z,17.77
2022-12-03T09:24:04.590Z,19.07
2022-12-03T09:26:30.902Z,18.50
2022-12-03T09:28:57.407Z,18.37
2022-12-03T09:31:23.860Z,17.07
2022-12-03T09:33:50.276Z,19.97
2022-12-03T09:36:16.642Z,19.23
2022-12-03T09:38:46.271Z,17.13
2022-12-03T09:41:14.430Z,20.70
2022-12-03T09:44:03.196Z,20.33
2022-12-03T09:46:27.324Z,22.03
2022-12-03T09:48:55.333Z,23.10
2022-12-03T09:51:21.669Z,21.10
2022-12-03T09:53:48.396Z,20.53
2022-12-03T09:56:23.178Z,22.13
2022-12-03T09:58:50.124Z,21.43
2022-12-03T10:01:16.720Z,19.50
2022-12-03T10:03:47.105Z,18.50
2022-12-03T10:06:19.730Z,18.67
2022-12-03T10:08:55.634Z,19.27
2022-12-03T10:11:24.908Z,21.17
2022-12-03T10:13:52.492Z,16.63
2022-12-03T10:16:20.767Z,19.17
2022-12-03T10:18:50.041Z,20.17
2022-12-03T10:21:28.752Z,21.80
2022-12-03T10:24:16.679Z,18.20
2022-12-03T10:26:44.670Z,19.33
2022-12-03T10:29:18.658Z,16.73
2022-12-03T10:31:45.663Z,23.57
2022-12-03T10:34:12.010Z,19.37
2022-12-03T10:36:38.361Z,22.23
2022-12-03T10:39:13.609Z,19.10
2022-12-03T10:41:42.451Z,20.93
2022-12-03T10:44:25.367Z,21.80
2022-12-03T10:47:06.965Z,21.80
2022-12-03T10:49:33.500Z,22.10
2022-12-03T10:51:59.895Z,22.40
2022-12-03T10:54:28.141Z,20.70
2022-12-03T10:56:54.476Z,22.83
2022-12-03T10:59:24.008Z,23.00
2022-12-03T11:01:51.146Z,18.40
2022-12-03T11:04:32.927Z,21.00
2022-12-03T11:07:02.179Z,21.37
2022-12-03T11:09:32.135Z,21.33
2022-12-03T11:12:17.119Z,21.37
2022-12-03T11:14:53.884Z,20.17
2022-12-03T11:17:44.963Z,20.60
2022-12-03T11:20:22.388Z,22.40
2022-12-03T11:22:54.033Z,20.73
2022-12-03T11:25:31.265Z,21.30
2022-12-03T11:28:15.563Z,21.30
2022-12-03T11:30:51.170Z,21.27
2022-12-03T11:33:22.086Z,24.03
2022-12-03T11:36:03.536Z,21.33
2022-12-03T11:38:52.343Z,23.83
2022-12-03T11:41:29.268Z,25.37
2022-12-03T11:43:56.209Z,22.17
2022-12-03T11:46:37.965Z,22.90
2022-12-03T11:49:23.264Z,21.60
2022-12-03T11:51:49.956Z,25.67
2022-12-03T11:54:18.759Z,27.67
2022-12-03T11:56:48.834Z,22.83
2022-12-03T11:59:16.737Z,21.07
2022-12-03T12:01:43.863Z,29.17
2022-12-03T12:04:31.776Z,23.40
2022-12-03T12:06:58.754Z,26.70
2022-12-03T12:09:55.168Z,23.20
2022-12-03T12:12:37.823Z,25.77
2022-12-03T12:15:52.307Z,22.60
2022-12-03T12:18:33.705Z,21.90
2022-12-03T12:21:37.413Z,25.23
2022-12-03T12:24:43.063Z,24.97
2022-12-03T12:27:20.294Z,28.30
2022-12-03T12:29:52.727Z,24.57
2022-12-03T12:32:23.450Z,26.67
2022-12-03T12:34:53.641Z,25.10
2022-12-03T12:37:32.834Z,26.47
2022-12-03T12:40:02.365Z,25.43
2022-12-03T12:42:34.802Z,25.53
2022-12-03T12:45:22.559Z,25.77
2022-12-03T12:48:01.018Z,26.40
2022-12-03T12:50:27.699Z,24.57
2022-12-03T12:53:01.886Z,29.00
2022-12-03T12:55:28.346Z,26.93
2022-12-03T12:57:59.781Z,25.73
2022-12-03T13:00:26.185Z,22.97
2022-12-03T13:03:00.938Z,29.80
2022-12-03T13:05:38.294Z,25.00
2022-12-03T13:08:15.507Z,28.30
2022-12-03T13:10:42.450Z,27.13
2022-12-03T13:13:16.190Z,23.27
2022-12-03T13:15:52.300Z,23.90
2022-12-03T13:18:26.397Z,23.17
2022-12-03T13:20:54.938Z,28.00
2022-12-03T13:23:35.231Z,25.73
2022-12-03T13:26:28.472Z,24.90
2022-12-03T13:29:01.874Z,23.73
2022-12-03T13:31:33.280Z,28.03
2022-12-03T13:34:01.439Z,22.73
2022-12-03T13:36:39.140Z,26.30
2022-12-03T13:39:36.724Z,24.07
2022-12-03T13:42:40.808Z,28.27
2022-12-03T13:45:15.935Z,27.30
2022-12-03T13:47:57.430Z,23.47
2022-12-03T13:50:44.821Z,25.97
2022-12-03T13:53:11.093Z,25.70
2022-12-03T13:55:39.840Z,24.87
2022-12-03T13:58:06.138Z,24.87
2022-12-03T14:00:32.414Z,24.77
2022-12-03T14:02:58.718Z,24.70
2022-12-03T14:05:25.019Z,26.20
2022-12-03T14:07:51.548Z,27.60
2022-12-03T14:10:18.020Z,27.57
2022-12-03T14:12:44.319Z,25.50
2022-12-03T14:15:11.308Z,25.63
2022-12-03T14:17:37.669Z,25.47
2022-12-03T14:20:04.578Z,28.67
2022-12-03T14:22:30.998Z,27.43
2022-12-03T14:24:57.746Z,29.97
2022-12-03T14:27:24.784Z,26.47
2022-12-03T14:29:51.885Z,24.90
2022-12-03T14:32:18.730Z,28.03
2022-12-03T14:34:45.077Z,27.20
2022-12-03T14:37:11.455Z,28.70
2022-12-03T14:39:37.977Z,27.57
2022-12-03T14:42:13.264Z,25.03
2022-12-03T14:44:40.006Z,26.57
2022-12-03T14:47:06.293Z,24.47
2022-12-03T14:49:32.663Z,23.80
2022-12-03T14:51:59.005Z,27.17
2022-12-03T14:54:25.641Z,31.50
2022-12-03T14:56:51.977Z,24.07
2022-12-03T14:59:20.710Z,26.10
2022-12-03T15:01:51.011Z,30.90
2022-12-03T15:04:17.499Z,28.40
2022-12-03T15:06:43.917Z,28.83
2022-12-03T15:09:11.057Z,32.37
2022-12-03T15:11:41.395Z,30.73
2022-12-03T15:14:10.955Z,27.73
2022-12-03T15:16:37.310Z,24.70
2022-12-03T15:19:03.744Z,27.67
2022-12-03T15:21:32.656Z,26.13
2022-12-03T15:23:59.679Z,24.20
2022-12-03T15:26:26.160Z,26.13
2022-12-03T15:28:52.514Z,26.43
2022-12-03T15:31:18.962Z,29.17
2022-12-03T15:33:45.281Z,28.23
2022-12-03T15:36:12.526Z,27.60
2022-12-03T15:38:38.928Z,23.30
2022-12-03T15:41:21.162Z,26.77
2022-12-03T15:43:49.033Z,25.60
2022-12-03T15:46:15.869Z,25.87
2022-12-03T15:48:42.252Z,24.63
2022-12-03T15:51:08.645Z,23.47
2022-12-03T15:53:34.993Z,25.50
2022-12-03T15:56:01.394Z,24.43
2022-12-03T15:58:28.073Z,28.30
2022-12-03T16:00:54.464Z,26.37
2022-12-03T16:03:21.125Z,24.63
2022-12-03T16:05:47.575Z,28.70
2022-12-03T16:08:13.966Z,25.23
2022-12-03T16:10:40.390Z,25.63
2022-12-03T16:13:06.698Z,27.27
2022-12-03T16:15:34.995Z,26.07
2022-12-03T16:18:01.552Z,26.13
2022-12-03T16:20:27.931Z,25.77
2022-12-03T16:22:54.251Z,23.37
2022-12-03T16:25:20.711Z,25.63
2022-12-03T16:27:47.102Z,26.53
2022-12-03T16:30:14.046Z,27.00
2022-12-03T16:32:40.363Z,25.17
2022-12-03T16:35:06.861Z,30.07
2022-12-03T16:37:33.194Z,26.17
2022-12-03T16:39:59.473Z,26.70
2022-12-03T16:42:27.204Z,28.97
2022-12-03T16:45:02.638Z,21.60
2022-12-03T16:47:33.589Z,27.23
2022-12-03T16:50:02.336Z,28.50
2022-12-03T16:52:28.695Z,25.93
2022-12-03T16:54:55.026Z,26.60
2022-12-03T16:57:21.350Z,27.33
2022-12-03T16:59:47.778Z,28.63
2022-12-03T17:02:14.325Z,26.03
2022-12-03T17:04:40.784Z,28.90
2022-12-03T17:07:07.100Z,28.30
2022-12-03T17:09:33.447Z,31.43
2022-12-03T17:11:59.792Z,26.77
2022-12-03T17:14:31.459Z,27.93
2022-12-03T17:16:59.480Z,28.30
2022-12-03T17:19:25.822Z,30.23
2022-12-03T17:21:53.918Z,27.27
2022-12-03T17:24:21.273Z,25.93
2022-12-03T17:26:47.641Z,29.27
2022-12-03T17:29:14.179Z,28.53
2022-12-03T17:31:42.480Z,26.57
2022-12-03T17:34:09.582Z,23.50
2022-12-03T17:36:35.932Z,28.40
2022-12-03T17:39:02.350Z,31.83
2022-12-03T17:41:28.667Z,29.00
2022-12-03T17:43:55.032Z,27.30
2022-12-03T17:46:21.421Z,30.93
2022-12-03T17:48:47.848Z,31.00
2022-12-03T17:51:14.132Z,31.60
2022-12-03T17:53:40.440Z,28.97
2022-12-03T17:56:06.879Z,26.23
2022-12-03T17:58:33.317Z,31.07
2022-12-03T18:01:02.696Z,28.93
2022-12-03T18:03:29.829Z,27.20
2022-12-03T18:05:56.203Z,30.03
2022-12-03T18:08:22.632Z,31.13
2022-12-03T18:10:49.055Z,34.17
2022-12-03T18:13:15.497Z,29.43
2022-12-03T18:15:41.974Z,30.60
2022-12-03T18:18:08.438Z,27.87
2022-12-03T18:20:34.912Z,26.20
2022-12-03T18:23:01.990Z,28.03
2022-12-03T18:25:29.004Z,27.10
2022-12-03T18:27:55.466Z,28.23
2022-12-03T18:30:21.863Z,24.33
2022-12-03T18:32:48.284Z,31.53
2022-12-03T18:35:14.628Z,27.40
2022-12-03T18:37:40.979Z,22.37
2022-12-03T18:40:13.454Z,25.57
2022-12-03T18:42:39.863Z,21.93
2022-12-03T18:45:06.833Z,27.20
2022-12-03T18:47:33.198Z,27.67
2022-12-03T18:49:59.708Z,27.70
2022-12-03T18:52:26.135Z,29.10
2022-12-03T18:54:52.627Z,26.40
2022-12-03T18:57:19.006Z,27.20
2022-12-03T18:59:45.358Z,28.10
2022-12-03T19:02:45.994Z,29.03
2022-12-03T19:05:06.160Z,26.73
2022-12-03T19:07:32.551Z,29.13
2022-12-03T19:09:58.900Z,30.87
2022-12-03T19:12:25.191Z,29.50
2022-12-03T19:14:51.586Z,30.73
2022-12-03T19:17:17.923Z,27.07
2022-12-03T19:19:44.290Z,25.60
2022-12-03T19:22:10.655Z,28.97
2022-12-03T19:24:37.010Z,25.83
2022-12-03T19:27:03.416Z,36.10
2022-12-03T19:29:29.777Z,28.40
2022-12-03T19:31:56.223Z,24.43
2022-12-03T19:34:22.644Z,24.10
2022-12-03T19:36:49.059Z,29.57
2022-12-03T19:39:15.415Z,26.40
2022-12-03T19:41:43.568Z,25.27
2022-12-03T19:44:17.503Z,25.67
2022-12-03T19:46:44.287Z,27.67
2022-12-03T19:49:10.916Z,24.13
2022-12-03T19:51:37.666Z,29.27
2022-12-03T19:54:06.208Z,26.03
2022-12-03T19:56:32.813Z,22.23
2022-12-03T19:58:59.262Z,26.33
2022-12-03T20:01:27.694Z,25.63
2022-12-03T20:03:56.159Z,23.63
2022-12-03T20:06:25.588Z,25.77
2022-12-03T20:09:00.243Z,25.67
2022-12-03T20:11:32.186Z,28.17
2022-12-03T20:14:01.217Z,24.40
2022-12-03T20:16:28.681Z,23.93
2022-12-03T20:19:00.629Z,25.87
2022-12-03T20:21:30.258Z,25.10
2022-12-03T20:23:56.591Z,22.00
2022-12-03T20:26:24.107Z,23.13
2022-12-03T20:28:52.449Z,23.17
2022-12-03T20:31:21.161Z,25.63
2022-12-03T20:33:51.077Z,28.80
2022-12-03T20:36:20.531Z,23.73
2022-12-03T20:38:47.253Z,25.20
2022-12-03T20:41:16.793Z,23.53
2022-12-03T20:43:43.148Z,24.03
2022-12-03T20:46:12.190Z,17.77
2022-12-03T20:48:39.451Z,21.03
2022-12-03T20:51:07.452Z,21.07
2022-12-03T20:53:34.590Z,23.57
2022-12-03T20:56:02.066Z,25.23
2022-12-03T20:58:30.274Z,23.03
2022-12-03T21:00:56.698Z,22.60
2022-12-03T21:03:23.053Z,23.27
2022-12-03T21:05:49.418Z,23.60
2022-12-03T21:08:15.904Z,21.70
2022-12-03T21:10:45.857Z,21.97
2022-12-03T21:13:16.939Z,23.83
2022-12-03T21:15:44.289Z,22.57
2022-12-03T21:18:12.601Z,26.67
2022-12-03T21:20:48.697Z,24.97
2022-12-03T21:23:15.123Z,20.47
2022-12-03T21:25:41.517Z,19.43
2022-12-03T21:28:09.334Z,22.73
2022-12-03T21:30:39.801Z,17.80
2022-12-03T21:33:06.716Z,16.97
2022-12-03T21:35:36.673Z,17.90
2022-12-03T21:38:03.441Z,19.47
2022-12-03T21:40:29.960Z,18.43
2022-12-03T21:42:56.324Z,19.07
2022-12-03T21:45:24.854Z,19.03
2022-12-03T21:47:51.220Z,23.47
2022-12-03T21:50:17.719Z,20.60
2022-12-03T21:52:44.021Z,15.37
2022-12-03T21:55:10.334Z,19.63
2022-12-03T21:57:36.915Z,19.60
2022-12-03T22:00:08.672Z,20.03
2022-12-03T22:02:35.040Z,17.10
2022-12-03T22:05:01.538Z,19.50
2022-12-03T22:07:27.944Z,20.77
2022-12-03T22:09:54.601Z,21.37
2022-12-03T22:12:21.189Z,20.30
2022-12-03T22:14:47.522Z,19.60
2022-12-03T22:17:13.883Z,19.17
2022-12-03T22:19:40.229Z,17.37
2022-12-03T22:22:06.541Z,18.50
2022-12-03T22:24:32.933Z,21.87
2022-12-03T22:26:59.273Z,16.90
2022-12-03T22:29:25.606Z,17.37
2022-12-03T22:31:51.894Z,20.77
2022-12-03T22:34:18.324Z,20.37
2022-12-03T22:36:44.657Z,17.90
2022-12-03T22:39:10.978Z,19.37
2022-12-03T22:41:37.316Z,17.87
2022-12-03T22:44:03.754Z,16.67
2022-12-03T22:46:30.187Z,19.67
2022-12-03T22:48:58.464Z,16.63
2022-12-03T22:51:28.903Z,16.53
2022-12-03T22:53:56.907Z,19.43
2022-12-03T22:56:24.123Z,19.17
2022-12-03T22:58:50.589Z,17.30
2022-12-03T23:01:30.073Z,20.73
2022-12-03T23:03:56.821Z,18.53
2022-12-03T23:06:23.837Z,22.53
2022-12-03T23:08:50.574Z,19.27
2022-12-03T23:11:17.663Z,19.20
2022-12-03T23:13:44.122Z,20.17
2022-12-03T23:16:19.373Z,18.83
2022-12-03T23:18:45.910Z,18.93
2022-12-03T23:21:28.514Z,17.80
2022-12-03T23:23:55.625Z,15.90
2022-12-03T23:26:21.962Z,21.37
2022-12-03T23:28:48.360Z,18.73
2022-12-03T23:31:18.067Z,17.33
2022-12-03T23:33:45.122Z,20.07
2022-12-03T23:36:11.737Z,17.77
2022-12-03T23:38:38.342Z,20.60
2022-12-03T23:41:05.982Z,15.20
2022-12-03T23:43:32.286Z,16.00
2022-12-03T23:46:14.607Z,15.77
2022-12-03T23:48:42.091Z,17.47
2022-12-03T23:51:11.474Z,17.83
2022-12-03T23:53:38.819Z,15.40
2022-12-03T23:56:10.480Z,19.23
2022-12-03T23:58:38.470Z,17.33
